Kanarmoor — FS4492 — position and weather

sailwx.info

Track history (hours):
 
Tides and Currents Weather Stations Pressure Air Temp Water Temp Dewpoint Dewpoint Depression Visibility Wind Speed Wind Dir Waves Ship Positions

Kanarmoor

Last reported at 2018-Jan-19 15:33 UTC. Time now 2018-Jan-20 17:21 UTC.
Position N 47°49' W 004°23'.

Length 16 m.

Type: Fishing. MMSI: 228213700.

Date/timePositionNaut miles runAvg speedWind from/ knotsBaromVisibWave heightAir tempDewpointWater temp
2018-Jan-19 15:33N 47°49' W 004°23'0 0.0
2018-Jan-19 13:38N 47°49' W 004°23'0 0.0
2018-Jan-19 12:53N 47°49' W 004°23'  
2018-Jan-11 23:44N 48°06' W 004°19'0 0.1
2018-Jan-11 23:31N 48°06' W 004°19'0 0.4
2018-Jan-11 23:00N 48°06' W 004°19'0 0.0
2018-Jan-11 22:30N 48°06' W 004°19'0 0.0
2018-Jan-11 22:00N 48°06' W 004°19'0 0.0
2018-Jan-11 21:30N 48°06' W 004°19'0 0.2
2018-Jan-11 21:00N 48°06' W 004°19'4 7.9
2018-Jan-11 20:30N 48°09' W 004°23'4 7.7
2018-Jan-11 20:01N 48°12' W 004°26'0 0.2
2018-Jan-11 19:31N 48°12' W 004°27'0 0.7
2018-Jan-11 19:00N 48°12' W 004°26'0 0.3
2018-Jan-11 18:31N 48°12' W 004°26'0 0.5
2018-Jan-11 18:01N 48°12' W 004°26'2 4.0
2018-Jan-11 17:30N 48°14' W 004°28'4 8.2
2018-Jan-11 17:00N 48°10' W 004°31'3 6.3
2018-Jan-11 16:30N 48°09' W 004°36'5 9.0
2018-Jan-11 16:01N 48°08' W 004°29'4 8.9
2018-Jan-11 15:30N 48°07' W 004°23'3 5.3
2018-Jan-11 15:00N 48°06' W 004°19'0 0.0
2018-Jan-10 19:24N 48°06' W 004°19'1 3.0
2018-Jan-10 19:00N 48°07' W 004°19'1 2.0
2018-Jan-10 18:30N 48°08' W 004°20'2 3.0
2018-Jan-10 18:00N 48°07' W 004°22'2 3.6
2018-Jan-10 17:30N 48°07' W 004°25'2 3.3
2018-Jan-10 17:01N 48°07' W 004°27'4 8.7
2018-Jan-10 16:30N 48°07' W 004°21'0 0.7
2018-Jan-10 16:00N 48°07' W 004°20'1 2.5
2018-Jan-10 15:30N 48°08' W 004°19'2 3.9
2018-Jan-10 15:00N 48°06' W 004°19'0 0.0
2018-Jan-09 18:16N 48°06' W 004°19'0 0.7
2018-Jan-09 18:01N 48°06' W 004°19'1 2.2
2018-Jan-09 17:31N 48°07' W 004°19'1 2.3
2018-Jan-09 17:01N 48°08' W 004°19'1 1.8
2018-Jan-09 16:30N 48°07' W 004°20'0 1.0
2018-Jan-09 16:00N 48°07' W 004°19'  
Track history (hours):
 
Tides and Currents Weather Stations Pressure Air Temp Water Temp Dewpoint Dewpoint Depression Visibility Wind Speed Wind Dir Waves Ship Positions

Kanarmoor

Last reported at 2018-Jan-19 15:33 UTC. Time now 2018-Jan-20 17:21 UTC.
Position N 47°49' W 004°23'.

Length 16 m.

Type: Fishing. MMSI: 228213700.

Date/timePositionNaut miles runAvg speedWind from/ knotsBaromVisibWave heightAir tempDewpointWater temp
2018-Jan-19 15:33N 47°49' W 004°23'0 0.0
2018-Jan-19 13:38N 47°49' W 004°23'0 0.0
2018-Jan-19 12:53N 47°49' W 004°23'  
2018-Jan-11 23:44N 48°06' W 004°19'0 0.1
2018-Jan-11 23:31N 48°06' W 004°19'0 0.4
2018-Jan-11 23:00N 48°06' W 004°19'0 0.0
2018-Jan-11 22:30N 48°06' W 004°19'0 0.0
2018-Jan-11 22:00N 48°06' W 004°19'0 0.0
2018-Jan-11 21:30N 48°06' W 004°19'0 0.2
2018-Jan-11 21:00N 48°06' W 004°19'4 7.9
2018-Jan-11 20:30N 48°09' W 004°23'4 7.7
2018-Jan-11 20:01N 48°12' W 004°26'0 0.2
2018-Jan-11 19:31N 48°12' W 004°27'0 0.7
2018-Jan-11 19:00N 48°12' W 004°26'0 0.3
2018-Jan-11 18:31N 48°12' W 004°26'0 0.5
2018-Jan-11 18:01N 48°12' W 004°26'2 4.0
2018-Jan-11 17:30N 48°14' W 004°28'4 8.2
2018-Jan-11 17:00N 48°10' W 004°31'3 6.3
2018-Jan-11 16:30N 48°09' W 004°36'5 9.0
2018-Jan-11 16:01N 48°08' W 004°29'4 8.9
2018-Jan-11 15:30N 48°07' W 004°23'3 5.3
2018-Jan-11 15:00N 48°06' W 004°19'0 0.0
2018-Jan-10 19:24N 48°06' W 004°19'1 3.0
2018-Jan-10 19:00N 48°07' W 004°19'1 2.0
2018-Jan-10 18:30N 48°08' W 004°20'2 3.0
2018-Jan-10 18:00N 48°07' W 004°22'2 3.6
2018-Jan-10 17:30N 48°07' W 004°25'2 3.3
2018-Jan-10 17:01N 48°07' W 004°27'4 8.7
2018-Jan-10 16:30N 48°07' W 004°21'0 0.7
2018-Jan-10 16:00N 48°07' W 004°20'1 2.5
2018-Jan-10 15:30N 48°08' W 004°19'2 3.9
2018-Jan-10 15:00N 48°06' W 004°19'0 0.0
2018-Jan-09 18:16N 48°06' W 004°19'0 0.7
2018-Jan-09 18:01N 48°06' W 004°19'1 2.2
2018-Jan-09 17:31N 48°07' W 004°19'1 2.3
2018-Jan-09 17:01N 48°08' W 004°19'1 1.8
2018-Jan-09 16:30N 48°07' W 004°20'0 1.0
2018-Jan-09 16:00N 48°07' W 004°19'  

Dump ship's entire track history